Time;durP1;ratioP1;P1;durP2;ratioP2;P2;SDS_P1;SDS_P2;PMS_P1;PMS_P2;Temp;Humidity;BMP_temperature;BMP_pressure;BME280_temperature;BME280_humidity;BME280_pressure;Samples;Min_cycle;Max_cycle;Signal;HPM_P1;HPM_P2
2022/06/14 00:05:27;;;;;;;1.30;0.90;;;;;;;13.34;76.46;100945.17;5205175;56;1139006;-73
2022/06/14 00:10:51;;;;;;;1.47;1.10;;;;;;;13.32;76.68;100942.28;5205996;56;1138732;-74
2022/06/14 00:15:57;;;;;;;3.23;1.40;;;;;;;13.29;76.94;100946.02;5204363;56;1138898;-73
2022/06/14 00:21:04;;;;;;;1.17;1.07;;;;;;;13.28;76.99;100944.85;5205441;56;1139204;-74
2022/06/14 00:26:11;;;;;;;4.40;1.30;;;;;;;13.23;76.98;100948.36;5169470;56;1138959;-73
2022/06/14 00:31:24;;;;;;;1.40;1.10;;;;;;;13.16;77.40;100943.17;5199303;56;1139259;-73
2022/06/14 00:36:34;;;;;;;8.90;1.85;;;;;;;13.08;77.38;100949.58;5205841;56;1138879;-74
2022/06/14 00:41:44;;;;;;;1.70;1.37;;;;;;;13.02;77.76;100957.06;5205698;56;1138983;-73
2022/06/14 00:47:08;;;;;;;2.90;1.00;;;;;;;12.96;78.01;100958.06;5278258;56;1136921;-73
2022/06/14 00:52:36;;;;;;;1.17;0.90;;;;;;;12.86;78.35;100955.76;5224379;55;1136927;-73
2022/06/14 00:57:52;;;;;;;8.20;1.60;;;;;;;12.80;79.71;100951.80;5122396;57;1137252;-73
2022/06/14 01:03:03;;;;;;;2.83;1.60;;;;;;;12.70;80.26;100960.12;5192976;57;1136874;-73
2022/06/14 01:08:09;;;;;;;4.90;1.43;;;;;;;12.65;80.42;100953.03;5048605;57;1137313;-73
2022/06/14 01:13:18;;;;;;;1.53;1.07;;;;;;;12.52;81.05;100962.45;5065584;56;1136809;-74
2022/06/14 01:18:26;;;;;;;2.60;1.10;;;;;;;12.40;81.37;100955.42;5149662;57;1135155;-72
2022/06/14 01:23:33;;;;;;;2.72;1.17;;;;;;;12.35;82.04;100956.77;5201356;56;1138944;-73
2022/06/14 01:28:44;;;;;;;3.23;1.40;;;;;;;12.32;81.86;100955.19;5164894;56;1139024;-74
2022/06/14 01:33:57;;;;;;;1.97;1.10;;;;;;;12.30;81.67;100952.66;4980921;58;1138957;-75
2022/06/14 01:39:08;;;;;;;3.60;1.10;;;;;;;12.26;81.98;100956.50;5116742;56;1138974;-72
2022/06/14 01:44:27;;;;;;;2.87;1.30;;;;;;;12.14;82.81;100964.08;5131454;56;1139227;-72
2022/06/14 01:55:35;;;;;;;3.00;1.35;;;;;;;12.09;83.17;100959.61;5136871;57;1139314;-74
2022/06/14 02:00:45;;;;;;;2.50;1.33;;;;;;;12.07;83.35;100960.71;5113808;58;1139056;-73
2022/06/14 02:06:19;;;;;;;1.27;0.90;;;;;;;11.94;83.40;100971.38;4902911;59;1138968;-74
2022/06/14 02:11:32;;;;;;;2.42;0.93;;;;;;;11.92;83.75;100978.12;5049509;57;1139366;-73
2022/06/14 02:17:03;;;;;;;1.55;1.20;;;;;;;11.89;83.74;100988.14;5096356;57;1139285;-73
2022/06/14 02:22:26;;;;;;;5.30;1.40;;;;;;;11.88;84.41;100984.64;4981558;58;1137132;-73
2022/06/14 02:27:54;;;;;;;3.67;1.45;;;;;;;11.86;84.53;100986.55;5140933;56;1136896;-72
2022/06/14 02:33:13;;;;;;;1.43;0.60;;;;;;;11.80;84.70;100989.66;5141570;57;1136885;-72
2022/06/14 02:38:35;;;;;;;5.57;1.50;;;;;;;11.81;85.16;100986.05;5067237;57;1136918;-73
2022/06/14 02:43:51;;;;;;;5.60;0.70;;;;;;;11.79;85.29;100995.06;5049485;58;1135155;-73
2022/06/14 02:49:07;;;;;;;3.10;1.43;;;;;;;11.76;86.50;100997.97;5063678;58;1138831;-74
2022/06/14 02:54:23;;;;;;;2.77;0.90;;;;;;;11.76;86.32;100999.30;4972901;58;1138910;-74
2022/06/14 03:00:02;;;;;;;2.80;1.10;;;;;;;11.70;86.86;101003.69;4998775;58;1138913;-72
2022/06/14 03:05:55;;;;;;;1.13;0.90;;;;;;;11.69;86.83;101005.97;5061410;58;1138899;-74
2022/06/14 03:11:39;;;;;;;8.93;1.10;;;;;;;11.62;88.03;101018.81;4984618;59;1138969;-72
2022/06/14 03:17:29;;;;;;;1.30;1.00;;;;;;;11.63;88.56;101017.38;5059003;58;1138879;-74
2022/06/14 03:23:26;;;;;;;3.87;1.10;;;;;;;11.62;88.92;101015.69;5066071;57;1136755;-73
2022/06/14 03:28:42;;;;;;;5.87;1.20;;;;;;;11.66;89.25;101017.63;5130302;56;1136895;-72
2022/06/14 03:33:59;;;;;;;1.50;0.77;;;;;;;11.67;89.48;101028.59;5191832;56;1134365;-72
2022/06/14 03:39:12;;;;;;;2.57;1.07;;;;;;;11.73;90.29;101022.02;5193452;57;1138965;-72
2022/06/14 03:44:18;;;;;;;;;;;;;;;11.78;91.63;101026.50;5197021;57;1138985;-73
2022/06/14 03:49:26;;;;;;;2.13;0.93;;;;;;;11.86;91.03;101026.80;5216093;56;976382;-72
2022/06/14 03:54:45;;;;;;;4.20;0.80;;;;;;;11.94;90.68;101029.70;5149360;56;1136772;-72
2022/06/14 04:00:32;;;;;;;2.62;1.00;;;;;;;12.02;90.70;101019.38;5157734;57;1139239;-74
2022/06/14 04:06:11;;;;;;;2.87;1.23;;;;;;;12.08;90.95;101025.52;5157023;57;1138971;-72
2022/06/14 04:11:40;;;;;;;6.12;0.80;;;;;;;12.14;90.53;101025.07;5129142;57;1138986;-72
2022/06/14 04:17:07;;;;;;;3.83;1.20;;;;;;;12.12;90.89;101029.64;5054591;57;1138822;-72
2022/06/14 04:22:23;;;;;;;3.50;0.93;;;;;;;12.14;90.82;101031.70;5136148;56;1138900;-72
2022/06/14 04:27:56;;;;;;;4.03;1.07;;;;;;;12.18;90.60;101025.69;5186007;56;1136920;-73
2022/06/14 04:33:27;;;;;;;4.13;1.23;;;;;;;12.18;90.82;101027.86;5117170;57;1136842;-72
2022/06/14 04:38:40;;;;;;;6.63;1.60;;;;;;;12.25;91.17;101026.41;5136103;57;1137009;-73
2022/06/14 04:43:51;;;;;;;7.37;1.30;;;;;;;12.29;90.60;101032.34;5164892;56;1136888;-74
2022/06/14 04:49:27;;;;;;;2.83;1.33;;;;;;;12.31;89.99;101029.09;5187598;56;1136982;-74
2022/06/14 04:54:43;;;;;;;4.28;1.00;;;;;;;12.42;90.35;101029.58;5227641;56;1138980;-73
2022/06/14 04:59:56;;;;;;;4.53;1.20;;;;;;;12.47;90.33;101033.58;5190193;56;1138970;-74
2022/06/14 05:05:10;;;;;;;3.60;1.20;;;;;;;12.57;89.80;101033.70;5181473;56;1138935;-72
2022/06/14 05:10:26;;;;;;;5.12;1.07;;;;;;;12.63;90.27;101038.55;5226075;56;1138828;-73
2022/06/14 05:15:59;;;;;;;4.75;1.55;;;;;;;12.66;89.40;101035.66;5174797;56;1139034;-73
2022/06/14 05:21:18;;;;;;;6.72;1.25;;;;;;;12.70;89.85;101039.73;5140765;57;1138963;-75
2022/06/14 05:26:34;;;;;;;3.07;1.07;;;;;;;12.86;89.51;101040.70;5135963;57;1138987;-76
2022/06/14 05:32:19;;;;;;;4.30;1.00;;;;;;;12.97;88.65;101046.88;5194437;56;1139054;-76
2022/06/14 05:37:44;;;;;;;4.37;1.13;;;;;;;13.08;88.05;101049.16;5205653;57;1139549;-75
2022/06/14 05:43:00;;;;;;;3.47;1.13;;;;;;;13.34;88.25;101050.59;5218620;56;1136857;-74
2022/06/14 05:48:10;;;;;;;4.53;1.83;;;;;;;13.53;86.10;101044.16;5079556;57;1137022;-73
2022/06/14 05:53:20;;;;;;;5.80;1.80;;;;;;;13.62;84.96;101049.19;5064524;58;1137004;-74
2022/06/14 05:58:42;;;;;;;4.97;1.17;;;;;;;13.68;84.66;101039.40;5092081;58;1136919;-74
2022/06/14 06:04:04;;;;;;;12.60;2.20;;;;;;;13.88;83.54;101051.90;5076155;58;1137103;-75
2022/06/14 06:09:22;;;;;;;6.90;1.70;;;;;;;13.88;83.54;101051.90;5001145;57;1139186;-75
2022/06/14 06:14:37;;;;;;;11.67;1.57;;;;;;;14.01;83.03;101043.25;5223590;56;1134845;-76
2022/06/14 06:20:28;;;;;;;3.62;1.10;;;;;;;14.21;79.72;101042.89;5250367;55;1141017;-74
2022/06/14 06:25:38;;;;;;;4.87;1.70;;;;;;;14.19;78.87;101046.19;5249680;55;1139071;-75
2022/06/14 06:30:50;;;;;;;5.40;0.90;;;;;;;14.38;77.29;101048.11;5271644;56;1139014;-74
2022/06/14 06:36:20;;;;;;;7.67;1.10;;;;;;;14.43;73.97;101044.13;5294547;56;1139009;-75
2022/06/14 06:47:01;;;;;;;6.67;1.37;;;;;;;14.61;72.78;101048.86;5271901;56;1139212;-74
2022/06/14 06:52:09;;;;;;;;;;;;;;;14.83;73.59;101057.98;5005557;57;1139028;-73
2022/06/14 06:57:18;;;;;;;4.67;1.10;;;;;;;15.08;70.09;101051.38;5179739;56;976230;-73
2022/06/14 07:02:50;;;;;;;5.03;1.10;;;;;;;15.40;71.03;101051.20;5185889;56;1136951;-74
2022/06/14 07:08:12;;;;;;;9.50;1.77;;;;;;;15.40;71.03;101051.20;5209518;56;1139048;-72
2022/06/14 07:13:24;;;;;;;2.40;2.20;;;;;;;15.61;66.72;101061.28;5208365;56;1136972;-74
2022/06/14 07:18:46;;;;;;;3.23;1.27;;;;;;;15.44;63.60;101051.25;5143128;56;1137008;-74
2022/06/14 07:24:02;;;;;;;3.20;1.17;;;;;;;15.51;65.10;101051.06;5118266;57;1136980;-72
2022/06/14 07:29:29;;;;;;;3.37;1.10;;;;;;;15.52;63.61;101056.75;5117886;57;1136982;-72
2022/06/14 07:34:37;;;;;;;2.50;1.13;;;;;;;15.49;64.79;101060.53;4998797;58;1137033;-76
2022/06/14 07:39:59;;;;;;;6.93;1.37;;;;;;;15.52;60.88;101060.75;4926313;59;1134957;-76
2022/06/14 07:45:37;;;;;;;5.33;0.90;;;;;;;15.59;61.88;101063.72;4973437;58;1138958;-75
2022/06/14 07:50:53;;;;;;;3.67;0.90;;;;;;;15.63;60.30;101058.48;5096571;58;1139064;-75
2022/06/14 07:56:05;;;;;;;4.03;1.20;;;;;;;15.68;62.51;101061.09;5243667;56;1139143;-72
2022/06/14 08:01:27;;;;;;;5.13;1.40;;;;;;;15.67;58.80;101059.41;5243183;56;1138925;-75
2022/06/14 08:06:51;;;;;;;4.20;0.80;;;;;;;15.69;57.92;101056.60;5166785;56;1138965;-75
2022/06/14 08:12:04;;;;;;;2.33;1.00;;;;;;;15.94;59.62;101061.38;5136632;56;1139020;-73
2022/06/14 08:17:15;;;;;;;4.33;0.93;;;;;;;16.25;58.90;101065.22;5147287;57;1139272;-75
2022/06/14 08:22:28;;;;;;;7.62;1.22;;;;;;;16.16;58.60;101065.59;5088970;56;1138973;-75
2022/06/14 08:27:42;;;;;;;7.30;0.97;;;;;;;16.06;57.73;101072.25;5155744;56;1138999;-73
2022/06/14 08:32:58;;;;;;;4.83;1.00;;;;;;;15.88;55.60;101076.63;5178490;57;1139201;-73
2022/06/14 08:38:20;;;;;;;8.45;0.85;;;;;;;16.10;57.81;101073.66;5068220;57;1139055;-72
2022/06/14 08:43:47;;;;;;;5.17;1.20;;;;;;;16.37;54.84;101069.42;5051603;57;1136905;-74
2022/06/14 08:49:15;;;;;;;3.63;1.20;;;;;;;16.52;53.62;101081.33;5076137;58;1137069;-76
2022/06/14 08:54:43;;;;;;;6.13;1.30;;;;;;;16.61;54.66;101077.82;5047410;57;1136942;-76
2022/06/14 09:00:12;;;;;;;2.23;0.83;;;;;;;16.46;53.79;101084.11;5100848;57;1136987;-76
2022/06/14 09:05:57;;;;;;;3.75;0.72;;;;;;;16.46;54.19;101068.09;5063604;57;1138966;-76
2022/06/14 09:11:20;;;;;;;5.03;0.80;;;;;;;16.75;55.26;101080.55;5059850;57;1138999;-74
2022/06/14 09:16:44;;;;;;;;;;;;;;;16.60;53.67;101075.29;5218099;56;1138919;-73
2022/06/14 09:22:17;;;;;;;5.97;0.87;;;;;;;16.54;55.04;101074.03;5218543;56;976329;-74
2022/06/14 09:27:34;;;;;;;;;;;;;;;16.57;54.23;101080.91;5217193;56;1136909;-74
2022/06/14 09:33:10;;;;;;;6.10;1.27;;;;;;;16.45;54.66;101090.92;5223542;56;976580;-74
2022/06/14 09:38:40;;;;;;;3.13;0.97;;;;;;;16.43;54.94;101083.55;5258457;55;1136881;-73
2022/06/14 09:44:24;;;;;;;3.53;0.80;;;;;;;16.42;54.87;101085.86;5228943;56;1136921;-74
2022/06/14 09:50:17;;;;;;;5.10;1.03;;;;;;;16.33;56.07;101089.40;5174520;56;1137250;-75
2022/06/14 09:55:56;;;;;;;3.70;0.80;;;;;;;16.39;56.24;101085.65;5183209;56;1138928;-75
2022/06/14 10:01:15;;;;;;;2.43;0.70;;;;;;;16.61;57.19;101084.50;5148079;56;1139154;-75
2022/06/14 10:06:59;;;;;;;1.70;0.80;;;;;;;16.83;56.09;101086.84;5200802;56;1139009;-74
2022/06/14 10:12:19;;;;;;;5.97;1.17;;;;;;;16.65;54.42;101087.23;5171055;56;1139174;-72
2022/06/14 10:17:53;;;;;;;1.90;1.00;;;;;;;16.49;55.35;101093.17;5129878;56;1139176;-76
2022/06/14 10:23:36;;;;;;;2.63;0.87;;;;;;;16.48;56.18;101094.16;5206307;55;1139075;-75
2022/06/14 10:29:03;;;;;;;4.67;1.10;;;;;;;16.51;56.05;101105.02;5224564;56;1136899;-73
2022/06/14 10:34:34;;;;;;;3.27;0.93;;;;;;;16.46;55.63;101091.27;5207903;55;1136918;-73
2022/06/14 10:40:16;;;;;;;2.93;1.00;;;;;;;16.42;57.24;101109.40;5216266;55;1136791;-75
2022/06/14 10:45:49;;;;;;;2.57;0.60;;;;;;;16.46;57.09;101103.29;5226821;56;1134926;-73
2022/06/14 10:51:08;;;;;;;7.23;1.57;;;;;;;16.50;57.56;101089.48;5226496;56;1139050;-73
2022/06/14 10:56:44;;;;;;;5.37;1.50;;;;;;;16.35;57.25;101096.25;5226595;56;1139027;-74
2022/06/14 11:02:22;;;;;;;3.50;0.90;;;;;;;16.24;56.98;101105.75;5206357;56;1139087;-76
2022/06/14 11:07:38;;;;;;;5.90;1.33;;;;;;;16.21;57.48;101099.84;5158593;56;1138914;-76
2022/06/14 11:13:10;;;;;;;4.13;1.43;;;;;;;16.30;57.46;101109.20;5206045;55;1139210;-74
2022/06/14 11:18:35;;;;;;;1.00;0.67;;;;;;;16.36;57.59;101105.95;5154372;56;1138938;-75
2022/06/14 11:23:51;;;;;;;6.20;1.10;;;;;;;16.48;56.21;101108.00;5194009;56;1139001;-75
2022/06/14 11:29:28;;;;;;;4.87;1.17;;;;;;;16.58;57.51;101106.64;5022598;58;1137341;-75
2022/06/14 11:35:16;;;;;;;7.47;1.47;;;;;;;16.43;57.14;101115.58;5005479;58;1137290;-73
2022/06/14 11:40:34;;;;;;;4.20;1.07;;;;;;;16.38;58.28;101122.67;5076368;57;1137004;-73
2022/06/14 11:45:52;;;;;;;3.80;0.70;;;;;;;16.45;57.52;101122.96;5096622;57;1139000;-74
2022/06/14 11:51:26;;;;;;;5.90;1.17;;;;;;;16.48;57.62;101118.19;5129580;56;1138980;-73
2022/06/14 11:57:09;;;;;;;4.67;1.00;;;;;;;16.59;58.09;101121.67;5216726;56;1138910;-74
2022/06/14 12:02:42;;;;;;;4.73;1.53;;;;;;;16.50;57.18;101123.36;5240071;55;1139037;-73
2022/06/14 12:07:55;;;;;;;3.60;1.37;;;;;;;16.38;58.38;101124.01;5240298;55;1138948;-71
2022/06/14 12:13:37;;;;;;;4.83;1.17;;;;;;;16.40;58.70;101131.39;5159953;55;1138917;-76
2022/06/14 12:18:48;;;;;;;9.63;1.37;;;;;;;16.48;59.19;101132.03;5099942;57;1138940;-76
2022/06/14 12:23:59;;;;;;;2.90;1.27;;;;;;;16.68;59.21;101125.69;5294496;55;1138925;-74
2022/06/14 12:29:19;;;;;;;19.27;2.40;;;;;;;16.93;56.68;101125.58;5226331;55;1139121;-74
2022/06/14 12:34:50;;;;;;;3.87;1.10;;;;;;;16.93;57.49;101126.06;5247046;55;1138971;-74
2022/06/14 12:40:17;;;;;;;4.03;1.10;;;;;;;16.91;57.66;101125.37;5237182;55;1136898;-74
2022/06/14 12:45:30;;;;;;;3.03;1.10;;;;;;;16.77;57.29;101134.69;5203439;55;1136921;-73
2022/06/14 12:50:43;;;;;;;2.20;1.10;;;;;;;16.65;57.59;101127.83;5241449;55;1136925;-75
2022/06/14 12:55:56;;;;;;;8.33;1.32;;;;;;;16.61;57.94;101131.73;5227588;55;1134745;-73
2022/06/14 13:01:20;;;;;;;;;;;;;;;16.59;58.83;101126.52;5250099;55;1138960;-74
2022/06/14 13:06:54;;;;;;;6.80;1.37;;;;;;;16.58;59.35;101139.52;5237389;55;976445;-77
2022/06/14 13:12:16;;;;;;;3.52;0.90;;;;;;;16.73;59.20;101126.59;5212624;56;1136913;-76
2022/06/14 13:17:43;;;;;;;4.20;1.33;;;;;;;16.75;57.71;101127.30;4937626;57;1138970;-76
2022/06/14 13:23:21;;;;;;;4.03;1.13;;;;;;;16.68;57.89;101128.84;5151472;56;1138972;-77
2022/06/14 13:28:43;;;;;;;6.33;1.03;;;;;;;16.65;58.50;101142.52;5187167;56;1138918;-76
2022/06/14 13:34:02;;;;;;;3.63;1.10;;;;;;;16.70;58.86;101131.73;5175976;56;1139127;-73
2022/06/14 13:39:46;;;;;;;3.43;1.20;;;;;;;17.05;59.16;101131.08;5142416;57;1138950;-74
2022/06/14 13:45:19;;;;;;;3.33;1.17;;;;;;;17.36;58.67;101124.98;5159641;57;1136965;-74
2022/06/14 13:50:44;;;;;;;3.35;1.02;;;;;;;17.68;57.79;101131.25;5193197;57;1136903;-72
2022/06/14 13:56:06;;;;;;;1.77;0.80;;;;;;;17.66;55.98;101135.06;5192855;57;1136846;-73
2022/06/14 14:01:34;;;;;;;5.28;1.22;;;;;;;17.49;56.50;101124.14;5193409;56;1139119;-74
2022/06/14 14:06:44;;;;;;;4.23;1.13;;;;;;;17.41;57.71;101135.24;5199487;57;1138955;-76
2022/06/14 14:12:21;;;;;;;7.40;1.20;;;;;;;17.43;57.73;101136.75;5200444;57;1138976;-75
2022/06/14 14:17:43;;;;;;;4.60;1.45;;;;;;;17.38;56.96;101140.38;5204268;56;1138991;-75
2022/06/14 14:22:59;;;;;;;4.23;1.40;;;;;;;17.20;56.41;101140.80;5171795;56;1138794;-73
2022/06/14 14:28:50;;;;;;;1.93;0.97;;;;;;;17.09;57.42;101141.84;5223972;56;1139017;-75
2022/06/14 14:34:15;;;;;;;9.80;6.23;;;;;;;17.03;57.48;101141.08;5274380;56;1138981;-75
2022/06/14 14:39:32;;;;;;;47.13;29.50;;;;;;;17.05;58.20;101139.10;5140204;57;1138952;-75
2022/06/14 14:44:44;;;;;;;5.87;2.80;;;;;;;17.13;58.00;101133.85;5142691;57;1141295;-75
2022/06/14 14:49:57;;;;;;;29.53;15.03;;;;;;;17.14;58.56;101132.87;5188270;57;1137141;-75
2022/06/14 14:55:35;;;;;;;18.70;10.37;;;;;;;17.13;58.11;101133.01;5149417;56;1141224;-73
2022/06/14 15:06:28;;;;;;;20.33;9.00;;;;;;;17.27;57.55;101128.52;5129329;56;1141025;-73
2022/06/14 15:11:51;;;;;;;6.17;1.80;;;;;;;17.35;57.69;101131.31;5118181;57;1141055;-75
2022/06/14 15:22:46;;;;;;;6.33;2.10;;;;;;;17.16;58.09;101137.58;5149923;57;1140978;-74
2022/06/14 15:28:11;;;;;;;33.37;21.30;;;;;;;17.00;57.75;101136.02;5188980;57;1138910;-75
2022/06/14 15:33:42;;;;;;;30.77;15.87;;;;;;;16.82;57.75;101136.41;5176834;56;1143122;-75
2022/06/14 15:38:52;;;;;;;70.50;38.03;;;;;;;16.71;58.05;101138.76;5176198;56;1143158;-74
2022/06/14 15:44:16;;;;;;;31.90;15.40;;;;;;;16.63;58.40;101134.64;5182150;56;1143160;-75
2022/06/14 15:49:41;;;;;;;64.17;33.90;;;;;;;16.65;58.43;101135.31;5214734;56;1143418;-75
2022/06/14 15:55:00;;;;;;;41.40;20.53;;;;;;;16.67;59.18;101139.18;5198901;56;1143324;-76
2022/06/14 16:00:20;;;;;;;130.90;61.13;;;;;;;16.72;59.04;101136.44;5196730;56;1141058;-74
2022/06/14 16:05:45;;;;;;;158.60;89.97;;;;;;;16.77;59.08;101145.37;5177643;56;1143207;-76
2022/06/14 16:11:06;;;;;;;56.47;29.97;;;;;;;16.81;59.70;101147.59;4950359;58;1143327;-75
2022/06/14 16:16:38;;;;;;;24.67;11.37;;;;;;;16.72;60.11;101145.79;4974325;58;1141216;-75
2022/06/14 16:21:51;;;;;;;20.60;10.45;;;;;;;16.68;59.45;101152.89;4973052;59;1143284;-75
2022/06/14 16:27:01;;;;;;;37.03;21.27;;;;;;;16.60;59.78;101150.91;5049865;58;1143287;-73
2022/06/14 16:32:18;;;;;;;23.77;12.37;;;;;;;16.48;60.06;101138.70;5051850;58;1143313;-73
2022/06/14 16:37:46;;;;;;;6.60;2.03;;;;;;;16.35;60.31;101148.31;5037994;57;1143243;-74
2022/06/14 16:43:03;;;;;;;19.90;13.40;;;;;;;16.33;61.18;101146.30;5006040;59;1139032;-72
2022/06/14 16:48:45;;;;;;;28.93;19.83;;;;;;;16.30;61.55;101149.25;5165387;57;1143440;-73
2022/06/14 16:54:14;;;;;;;7.17;3.73;;;;;;;16.29;61.74;101152.89;5108304;56;1143312;-73
2022/06/14 16:59:59;;;;;;;10.83;6.27;;;;;;;16.28;61.92;101152.55;5100687;57;1138930;-73
2022/06/14 17:05:22;;;;;;;4.63;1.83;;;;;;;16.27;62.56;101145.52;5148488;57;1141309;-72
2022/06/14 17:10:38;;;;;;;3.00;1.40;;;;;;;16.30;62.68;101147.06;5196101;57;1137408;-73
2022/06/14 17:16:03;;;;;;;7.23;1.97;;;;;;;16.26;62.68;101147.83;5196718;57;1136860;-74
2022/06/14 17:21:34;;;;;;;8.40;3.93;;;;;;;16.35;62.62;101141.64;5198196;57;1136842;-74
2022/06/14 17:32:21;;;;;;;5.90;3.27;;;;;;;16.44;62.32;101146.64;5188738;56;1139032;-74
2022/06/14 17:37:28;;;;;;;8.87;2.23;;;;;;;16.36;62.42;101150.00;5177307;56;1138985;-76
2022/06/14 17:42:40;;;;;;;7.30;1.90;;;;;;;16.25;62.93;101145.30;5192513;57;1139055;-74
2022/06/14 17:48:35;;;;;;;;;;;;;;;;;;;;;
2022/06/14 17:53:59;;;;;;;7.70;1.57;;;;;;;16.16;63.58;101152.33;5187619;56;1139010;-74
2022/06/14 17:59:18;;;;;;;5.87;1.70;;;;;;;16.18;63.85;101148.55;5162287;56;1138907;-75
2022/06/14 18:04:40;;;;;;;9.33;1.43;;;;;;;16.14;64.21;101147.62;5081197;57;1138939;-74
2022/06/14 18:09:59;;;;;;;16.13;9.07;;;;;;;16.12;64.29;101148.25;4977579;58;1138862;-75
2022/06/14 18:15:06;;;;;;;14.97;7.57;;;;;;;16.16;64.73;101146.50;5013584;58;1141089;-73
2022/06/14 18:25:59;;;;;;;7.47;2.67;;;;;;;16.11;65.10;101155.41;5029799;59;1138993;-74
2022/06/14 18:31:40;;;;;;;3.60;1.33;;;;;;;16.04;65.37;101158.79;4961290;58;1136953;-75
2022/06/14 18:36:59;;;;;;;6.93;1.67;;;;;;;15.93;65.33;101161.06;4809297;60;1137091;-74
2022/06/14 18:42:39;;;;;;;8.57;2.50;;;;;;;15.81;65.24;101159.50;4817570;61;1138973;-73
2022/06/14 18:47:53;;;;;;;3.87;1.70;;;;;;;15.68;65.61;101162.91;4773369;60;1139166;-73
2022/06/14 18:53:11;;;;;;;7.87;1.87;;;;;;;15.58;65.67;101165.56;4720608;62;1139064;-73
2022/06/14 18:58:35;;;;;;;22.13;2.93;;;;;;;15.49;65.93;101166.32;4779427;61;1139141;-74
2022/06/14 19:03:50;;;;;;;6.50;2.17;;;;;;;15.42;66.09;101165.19;4898235;58;1141565;-72
2022/06/14 19:09:25;;;;;;;9.70;1.50;;;;;;;15.33;66.34;101173.97;4967551;59;1139234;-73
2022/06/14 19:15:14;;;;;;;7.00;1.80;;;;;;;15.23;66.54;101173.09;4986408;58;1138918;-73
2022/06/14 19:20:35;;;;;;;4.70;1.40;;;;;;;15.14;66.64;101173.38;5095562;58;1139178;-73
2022/06/14 19:26:08;;;;;;;9.50;2.20;;;;;;;15.03;66.93;101183.64;4969109;58;1136883;-73
2022/06/14 19:31:23;;;;;;;7.77;1.67;;;;;;;14.93;67.10;101181.91;5036467;58;1136972;-75
2022/06/14 19:36:33;;;;;;;7.20;2.20;;;;;;;14.82;67.41;101186.79;4994639;58;1136870;-72
2022/06/14 19:42:08;;;;;;;5.70;1.70;;;;;;;14.71;67.67;101187.70;4919567;59;1136869;-71
2022/06/14 19:47:29;;;;;;;5.47;2.20;;;;;;;14.65;67.90;101194.05;5012050;59;1134997;-72
2022/06/14 19:52:40;;;;;;;14.40;3.67;;;;;;;14.56;68.18;101191.66;4942732;59;1138576;-72
2022/06/14 19:58:04;;;;;;;12.63;3.53;;;;;;;14.48;68.44;101195.45;4972382;59;1141139;-73
2022/06/14 20:03:08;;;;;;;9.40;2.27;;;;;;;14.41;69.00;101188.94;4914118;59;1141185;-73
2022/06/14 20:08:13;;;;;;;9.67;3.20;;;;;;;14.39;69.08;101187.70;4968673;57;1139064;-72
2022/06/14 20:13:22;;;;;;;6.73;1.90;;;;;;;14.37;69.17;101192.30;4969177;58;1139177;-72
2022/06/14 20:18:44;;;;;;;9.53;1.80;;;;;;;14.31;69.18;101184.00;4938270;59;1139092;-71
2022/06/14 20:23:53;;;;;;;9.93;1.70;;;;;;;14.23;69.29;101189.94;5121537;57;1139038;-72
2022/06/14 20:29:03;;;;;;;7.83;2.07;;;;;;;14.13;69.64;101193.00;5109814;58;1138982;-73
2022/06/14 20:34:07;;;;;;;91.40;30.13;;;;;;;14.07;69.73;101192.16;5101953;57;1138912;-73
2022/06/14 20:39:33;;;;;;;11.67;3.20;;;;;;;14.01;69.98;101197.99;5071559;57;1143123;-73
2022/06/14 20:44:44;;;;;;;14.73;2.97;;;;;;;14.01;70.15;101204.16;5056431;57;1141081;-73
2022/06/14 20:49:53;;;;;;;7.63;2.60;;;;;;;13.93;70.29;101201.26;5076594;57;1141071;-73
2022/06/14 20:55:00;;;;;;;8.23;2.17;;;;;;;13.86;70.61;101197.91;5125081;56;1139043;-73
2022/06/14 21:00:12;;;;;;;10.93;2.70;;;;;;;13.82;70.80;101203.09;5085674;57;1138940;-73
2022/06/14 21:05:18;;;;;;;11.30;3.57;;;;;;;13.84;71.18;101206.00;5090384;56;1141112;-74
2022/06/14 21:16:00;;;;;;;13.53;5.63;;;;;;;14.09;71.58;101203.52;5082275;58;1141199;-73
2022/06/14 21:21:06;;;;;;;48.93;21.23;;;;;;;14.21;71.70;101207.84;5059655;58;1138918;-73
2022/06/14 21:26:12;;;;;;;30.27;11.53;;;;;;;14.33;71.73;101217.98;5044604;57;1141193;-73
2022/06/14 21:31:20;;;;;;;25.13;6.87;;;;;;;14.38;71.67;101206.45;5044073;58;1141245;-74
2022/06/14 21:36:50;;;;;;;13.33;5.20;;;;;;;14.39;71.52;101206.33;5092479;57;1139115;-73
2022/06/14 21:42:03;;;;;;;16.50;4.43;;;;;;;14.35;71.26;101200.92;5126880;57;1139176;-73
2022/06/14 21:47:24;;;;;;;6.62;3.83;;;;;;;14.27;71.20;101203.36;5108132;57;1138931;-72
2022/06/14 21:52:31;;;;;;;9.17;4.20;;;;;;;14.19;71.19;101212.46;5125957;56;1136841;-73
2022/06/14 21:57:51;;;;;;;15.87;3.80;;;;;;;14.03;71.45;101200.05;5090142;57;1134753;-72
2022/06/14 22:03:16;;;;;;;8.03;3.00;;;;;;;14.03;71.45;101200.05;5106790;57;1141145;-73
2022/06/14 22:08:24;;;;;;;8.70;2.23;;;;;;;14.00;71.30;101215.77;5170174;57;1139128;-73
2022/06/14 22:13:38;;;;;;;8.00;1.87;;;;;;;13.83;71.77;101214.95;5159487;56;1138989;-73
2022/06/14 22:18:44;;;;;;;9.30;2.60;;;;;;;13.76;72.48;101211.07;5176346;56;1138875;-73
2022/06/14 22:29:16;;;;;;;7.70;2.20;;;;;;;13.83;73.66;101206.97;5150780;56;1139266;-72
2022/06/14 22:34:29;;;;;;;5.90;2.47;;;;;;;13.87;73.79;101211.08;5158332;56;1139219;-73
2022/06/14 22:39:34;;;;;;;;;;;;;;;13.82;73.42;101204.43;5151253;57;1138970;-72
2022/06/14 22:44:41;;;;;;;12.63;2.50;;;;;;;13.68;73.33;101202.87;5147052;57;976346;-72
2022/06/14 22:49:46;;;;;;;7.70;2.67;;;;;;;13.58;73.63;101205.91;5103558;57;1138961;-72
2022/06/14 22:54:52;;;;;;;7.97;3.10;;;;;;;13.49;73.79;101197.32;5074844;58;1138967;-72
2022/06/14 22:59:58;;;;;;;7.67;2.10;;;;;;;13.46;74.24;101198.88;5092819;57;1138936;-72
2022/06/14 23:05:04;;;;;;;4.53;2.00;;;;;;;13.43;74.32;101204.47;5156287;57;1138858;-73
2022/06/14 23:10:10;;;;;;;4.77;2.03;;;;;;;13.44;74.62;101203.50;5157130;57;1139033;-73
2022/06/14 23:15:16;;;;;;;7.30;2.77;;;;;;;13.41;75.28;101191.78;5142800;57;1138942;-72
2022/06/14 23:20:22;;;;;;;6.73;2.73;;;;;;;13.41;75.28;101191.78;5123234;57;1138986;-72
2022/06/14 23:25:28;;;;;;;9.43;2.77;;;;;;;13.28;75.05;101202.05;5161635;57;1138957;-72
2022/06/14 23:30:34;;;;;;;8.43;2.30;;;;;;;13.19;75.40;101200.57;5161675;57;1138940;-72
2022/06/14 23:35:41;;;;;;;7.37;2.53;;;;;;;13.02;75.43;101193.88;5125640;57;1139082;-72
2022/06/14 23:40:56;;;;;;;13.23;2.70;;;;;;;12.86;75.81;101188.89;5108931;57;1139268;-72
2022/06/14 23:46:04;;;;;;;9.30;2.20;;;;;;;12.82;76.17;101190.59;5063360;57;1141099;-72
2022/06/14 23:51:10;;;;;;;5.30;1.90;;;;;;;12.86;76.86;101190.70;5094222;57;1139108;-73
2022/06/14 23:56:17;;;;;;;3.77;2.53;;;;;;;12.74;76.96;101188.50;5070493;57;1138978;-74
